Trujilo, Venezuela
Current Conditions -  °F | °C
As of 6:00 PM on Wednesday 22 Oct 2014 (Local Time) from SVBI Reporting Station
Broken Clouds Broken Clouds  
Wind Chill: 82°   Ceiling: 1700
Heat Index: 91°   Visibility: 6mi
Dew Point: 77°   Wind: 5mph
Humidity: 84%   Direction: 140°SE
Pressure: 29.83"   Gusts: NA
Location:  9.37°N, 70.43°W
Report Text: SVBI 222200Z 14004KT 9999 BKN017CB 28/25 Q1010
Loading
Personal Weather Stations






























Interactive Weather Map
Tropical Storm Tracking
New forecast layout! Learn more

10-Day Weather Forecast

Advertisements
Track Severe Weather on mobile